createdAt,value
2023-04-29T00:01:06.290Z,90.70
2023-04-29T00:03:33.651Z,90.80
2023-04-29T00:06:01.715Z,90.80
2023-04-29T00:08:28.824Z,90.90
2023-04-29T00:10:55.747Z,90.90
2023-04-29T00:13:22.754Z,91.00
2023-04-29T00:15:50.678Z,91.00
2023-04-29T00:18:17.453Z,91.00
2023-04-29T00:20:44.679Z,91.60
2023-04-29T00:23:11.936Z,91.20
2023-04-29T00:25:39.222Z,91.40
2023-04-29T00:28:06.875Z,91.40
2023-04-29T00:30:34.702Z,91.30
2023-04-29T00:33:01.834Z,91.30
2023-04-29T00:35:28.983Z,91.30
2023-04-29T00:37:55.958Z,91.50
2023-04-29T00:40:23.146Z,91.40
2023-04-29T00:42:50.706Z,91.40
2023-04-29T00:45:17.620Z,91.30
2023-04-29T00:47:44.915Z,91.30
2023-04-29T00:50:11.975Z,91.40
2023-04-29T00:52:40.040Z,91.50
2023-04-29T00:55:09.123Z,91.50
2023-04-29T00:57:36.203Z,91.50
2023-04-29T01:00:04.173Z,91.60
2023-04-29T01:02:31.445Z,91.60
2023-04-29T01:04:58.617Z,91.50
2023-04-29T01:08:03.051Z,91.60
2023-04-29T01:10:38.706Z,91.70
2023-04-29T01:13:11.433Z,91.70
2023-04-29T01:15:52.956Z,91.70
2023-04-29T01:18:26.672Z,91.90
2023-04-29T01:20:54.075Z,91.90
2023-04-29T01:23:21.317Z,92.00
2023-04-29T01:25:49.112Z,92.00
2023-04-29T01:28:53.602Z,92.10
2023-04-29T01:31:42.020Z,92.20
2023-04-29T01:34:14.993Z,92.10
2023-04-29T01:37:05.560Z,92.00
2023-04-29T01:39:56.577Z,91.90
2023-04-29T01:42:33.798Z,92.10
2023-04-29T01:45:05.786Z,92.10
2023-04-29T01:47:34.163Z,92.10
2023-04-29T01:50:02.853Z,92.10
2023-04-29T01:52:30.028Z,92.20
2023-04-29T01:54:57.581Z,92.20
2023-04-29T01:57:24.776Z,92.10
2023-04-29T01:59:52.957Z,92.20
2023-04-29T02:02:23.690Z,92.30
2023-04-29T02:04:51.147Z,92.30
2023-04-29T02:07:18.161Z,92.40
2023-04-29T02:09:45.091Z,92.60
2023-04-29T02:12:12.003Z,92.50
2023-04-29T02:14:39.755Z,92.60
2023-04-29T02:17:07.009Z,92.50
2023-04-29T02:19:33.760Z,92.50
2023-04-29T02:22:01.054Z,92.60
2023-04-29T02:24:28.113Z,92.60
2023-04-29T02:26:55.422Z,92.60
2023-04-29T02:29:22.381Z,92.60
2023-04-29T02:31:49.462Z,92.80
2023-04-29T02:34:16.432Z,93.30
2023-04-29T02:36:43.832Z,93.10
2023-04-29T02:39:11.031Z,93.10
2023-04-29T02:41:37.962Z,93.10
2023-04-29T02:44:05.084Z,93.10
2023-04-29T02:46:33.826Z,93.00
2023-04-29T02:49:01.424Z,93.00
2023-04-29T02:51:29.229Z,92.90
2023-04-29T02:53:56.414Z,93.00
2023-04-29T02:56:23.736Z,92.90
2023-04-29T02:58:50.612Z,93.00
2023-04-29T03:01:17.601Z,93.10
2023-04-29T03:03:44.743Z,93.10
2023-04-29T03:06:12.083Z,93.30
2023-04-29T03:08:39.030Z,93.70
2023-04-29T03:11:06.768Z,93.30
2023-04-29T03:13:33.719Z,93.40
2023-04-29T03:16:01.582Z,93.40
2023-04-29T03:18:28.435Z,93.40
2023-04-29T03:20:55.632Z,93.40
2023-04-29T03:23:22.616Z,93.50
2023-04-29T03:25:50.114Z,93.50
2023-04-29T03:28:17.094Z,93.50
2023-04-29T03:30:43.887Z,93.40
2023-04-29T03:33:10.766Z,93.40
2023-04-29T03:35:37.803Z,93.60
2023-04-29T03:38:04.705Z,93.80
2023-04-29T03:40:31.525Z,93.70
2023-04-29T03:42:58.461Z,93.80
2023-04-29T03:45:25.613Z,93.80
2023-04-29T03:47:53.596Z,93.90
2023-04-29T03:50:20.577Z,93.90
2023-04-29T03:52:47.680Z,93.90
2023-04-29T03:55:14.571Z,93.90
2023-04-29T03:57:42.645Z,93.80
2023-04-29T04:00:10.357Z,93.80
2023-04-29T04:02:37.595Z,94.00
2023-04-29T04:05:05.015Z,93.70
2023-04-29T04:07:31.976Z,93.80
2023-04-29T04:09:58.975Z,93.80
2023-04-29T04:12:25.998Z,93.90
2023-04-29T04:14:53.121Z,94.10
2023-04-29T04:17:20.177Z,94.10
2023-04-29T04:19:47.006Z,94.10
2023-04-29T04:22:13.901Z,94.10
2023-04-29T04:24:40.778Z,94.20
2023-04-29T04:27:08.165Z,94.30
2023-04-29T04:29:35.065Z,94.40
2023-04-29T04:32:02.977Z,94.30
2023-04-29T04:34:29.901Z,94.20
2023-04-29T04:36:56.805Z,94.30
2023-04-29T04:39:23.965Z,94.30
2023-04-29T04:41:50.897Z,94.30
2023-04-29T04:44:17.798Z,94.60
2023-04-29T04:46:44.671Z,94.40
2023-04-29T04:49:11.467Z,94.30
2023-04-29T04:51:38.597Z,94.30
2023-04-29T04:54:05.474Z,94.30
2023-04-29T04:56:32.404Z,94.30
2023-04-29T04:58:59.288Z,94.30
2023-04-29T05:01:26.187Z,94.30
2023-04-29T05:03:53.321Z,94.30
2023-04-29T05:06:20.237Z,94.30
2023-04-29T05:08:47.204Z,94.30
2023-04-29T05:11:18.363Z,94.30
2023-04-29T05:13:45.915Z,94.20
2023-04-29T05:16:13.045Z,94.20
2023-04-29T05:18:40.081Z,94.20
2023-04-29T05:21:06.879Z,94.20
2023-04-29T05:23:33.664Z,94.10
2023-04-29T05:26:00.631Z,94.10
2023-04-29T05:28:28.352Z,94.20
2023-04-29T05:30:55.566Z,94.10
2023-04-29T05:33:22.771Z,94.10
2023-04-29T05:35:49.641Z,93.80
2023-04-29T05:38:16.422Z,93.80
2023-04-29T05:40:43.370Z,93.60
2023-04-29T05:43:10.301Z,93.50
2023-04-29T05:45:37.196Z,93.50
2023-04-29T05:48:04.290Z,93.30
2023-04-29T05:50:31.177Z,93.40
2023-04-29T05:52:58.303Z,93.30
2023-04-29T05:55:25.108Z,93.30
2023-04-29T05:57:51.844Z,93.20
2023-04-29T06:00:18.789Z,93.20
2023-04-29T06:02:57.431Z,93.10
2023-04-29T06:05:27.518Z,93.10
2023-04-29T06:07:55.151Z,93.00
2023-04-29T06:10:22.379Z,92.80
2023-04-29T06:12:51.563Z,92.80
2023-04-29T06:15:18.520Z,92.90
2023-04-29T06:17:46.112Z,93.00
2023-04-29T06:20:13.350Z,93.00
2023-04-29T06:22:40.684Z,93.00
2023-04-29T06:25:07.999Z,92.90
2023-04-29T06:27:35.149Z,92.80
2023-04-29T06:30:02.259Z,92.80
2023-04-29T06:32:29.489Z,92.90
2023-04-29T06:34:56.580Z,92.90
2023-04-29T06:37:23.448Z,93.00
2023-04-29T06:39:50.372Z,93.10
2023-04-29T06:42:18.145Z,93.20
2023-04-29T06:44:45.116Z,93.10
2023-04-29T06:47:12.292Z,93.40
2023-04-29T06:49:39.833Z,93.10
2023-04-29T06:52:07.172Z,93.00
2023-04-29T06:54:34.168Z,93.10
2023-04-29T06:57:01.239Z,93.10
2023-04-29T06:59:28.247Z,92.90
2023-04-29T07:01:55.180Z,92.90
2023-04-29T07:04:22.755Z,92.90
2023-04-29T07:06:49.990Z,92.80
2023-04-29T07:09:17.489Z,92.80
2023-04-29T07:11:44.537Z,92.80
2023-04-29T07:14:11.785Z,92.80
2023-04-29T07:16:39.349Z,92.90
2023-04-29T07:19:06.645Z,92.90
2023-04-29T07:21:33.677Z,93.00
2023-04-29T07:24:02.698Z,93.10
2023-04-29T07:26:29.600Z,93.10
2023-04-29T07:28:56.844Z,93.20
2023-04-29T07:31:24.009Z,93.00
2023-04-29T07:33:51.142Z,92.90
2023-04-29T07:36:19.243Z,92.80
2023-04-29T07:38:46.177Z,92.80
2023-04-29T07:41:13.280Z,92.80
2023-04-29T07:43:42.213Z,92.90
2023-04-29T07:46:09.540Z,92.90
2023-04-29T07:48:39.852Z,92.80
2023-04-29T07:51:06.938Z,92.80
2023-04-29T07:53:33.765Z,92.90
2023-04-29T07:56:05.981Z,93.00
2023-04-29T07:58:32.701Z,93.60
2023-04-29T08:01:07.048Z,93.20
2023-04-29T08:03:33.928Z,93.40
2023-04-29T08:06:02.503Z,93.50
2023-04-29T08:08:30.563Z,93.50
2023-04-29T08:10:57.389Z,93.90
2023-04-29T08:13:24.877Z,93.50
2023-04-29T08:15:51.861Z,93.60
2023-04-29T08:18:18.594Z,93.70
2023-04-29T08:20:47.434Z,93.70
2023-04-29T08:23:14.088Z,93.60
2023-04-29T08:25:44.217Z,93.50
2023-04-29T08:28:11.498Z,93.90
2023-04-29T08:30:41.817Z,93.50
2023-04-29T08:33:09.055Z,93.50
2023-04-29T08:35:39.168Z,93.40
2023-04-29T08:38:06.918Z,93.40
2023-04-29T08:40:41.978Z,93.40
2023-04-29T08:43:10.293Z,93.40
2023-04-29T08:45:37.851Z,93.60
2023-04-29T08:48:07.089Z,93.50
2023-04-29T08:50:43.837Z,93.00
2023-04-29T08:53:13.418Z,92.60
2023-04-29T08:55:47.645Z,92.70
2023-04-29T08:58:16.325Z,92.70
2023-04-29T09:00:44.920Z,91.80
2023-04-29T09:03:23.192Z,92.20
2023-04-29T09:05:53.902Z,91.90
2023-04-29T09:08:24.090Z,91.80
2023-04-29T09:10:54.473Z,91.70
2023-04-29T09:13:29.110Z,91.30
2023-04-29T09:15:56.692Z,91.40
2023-04-29T09:18:44.147Z,91.50
2023-04-29T09:21:22.332Z,91.80
2023-04-29T09:23:52.091Z,92.00
2023-04-29T09:26:19.854Z,92.40
2023-04-29T09:28:47.932Z,92.60
2023-04-29T09:31:14.922Z,92.70
2023-04-29T09:33:51.910Z,92.70
2023-04-29T09:36:38.534Z,93.00
2023-04-29T09:39:12.819Z,93.30
2023-04-29T09:41:40.835Z,93.80
2023-04-29T09:44:10.214Z,94.20
2023-04-29T09:46:37.703Z,94.50
2023-04-29T09:49:05.146Z,94.80
2023-04-29T09:51:32.553Z,95.40
2023-04-29T09:54:01.784Z,95.20
2023-04-29T09:56:30.832Z,95.20
2023-04-29T09:59:09.511Z,95.30
2023-04-29T10:01:36.691Z,95.60
2023-04-29T10:04:05.063Z,95.70
2023-04-29T10:06:32.255Z,95.50
2023-04-29T10:08:59.472Z,95.20
2023-04-29T10:11:27.118Z,95.00
2023-04-29T10:13:54.366Z,95.10
2023-04-29T10:16:34.523Z,95.30
2023-04-29T10:19:04.471Z,95.00
2023-04-29T10:21:32.153Z,94.60
2023-04-29T10:24:00.123Z,94.40
2023-04-29T10:26:37.735Z,93.90
2023-04-29T10:29:07.528Z,93.80
2023-04-29T10:31:36.586Z,93.80
2023-04-29T10:34:03.461Z,93.80
2023-04-29T10:36:31.569Z,94.00
2023-04-29T10:39:00.967Z,93.70
2023-04-29T10:41:33.563Z,93.40
2023-04-29T10:44:02.180Z,93.20
2023-04-29T10:46:30.560Z,93.00
2023-04-29T10:49:01.041Z,93.00
2023-04-29T10:51:33.028Z,92.70
2023-04-29T10:54:16.201Z,92.90
2023-04-29T10:56:50.345Z,92.90
2023-04-29T10:59:37.295Z,93.20
2023-04-29T11:02:04.011Z,93.80
2023-04-29T11:04:31.861Z,93.30
2023-04-29T11:07:03.151Z,92.90
2023-04-29T11:09:37.196Z,92.50
2023-04-29T11:12:06.091Z,92.00
2023-04-29T11:14:41.460Z,91.60
2023-04-29T11:17:09.921Z,91.70
2023-04-29T11:19:41.185Z,91.70
2023-04-29T11:22:25.485Z,91.80
2023-04-29T11:25:09.619Z,92.40
2023-04-29T11:27:42.450Z,91.60
2023-04-29T11:30:09.771Z,91.30
2023-04-29T11:32:41.247Z,90.70
2023-04-29T11:35:09.832Z,90.30
2023-04-29T11:37:37.160Z,90.60
2023-04-29T11:40:05.183Z,90.10
2023-04-29T11:42:54.770Z,90.60
2023-04-29T11:45:21.519Z,90.20
2023-04-29T11:47:49.490Z,89.80
2023-04-29T11:50:19.804Z,89.50
2023-04-29T11:52:48.279Z,89.50
2023-04-29T11:55:15.196Z,89.60
2023-04-29T11:57:42.091Z,89.00
2023-04-29T12:00:13.842Z,88.00
2023-04-29T12:02:45.284Z,87.50
2023-04-29T12:05:17.263Z,88.70
2023-04-29T12:07:44.858Z,88.60
2023-04-29T12:10:12.541Z,87.80
2023-04-29T12:12:44.121Z,88.40
2023-04-29T12:15:11.573Z,88.40
2023-04-29T12:17:39.202Z,87.60
2023-04-29T12:20:08.354Z,87.30
2023-04-29T12:22:35.552Z,85.40
2023-04-29T12:25:06.605Z,86.30
2023-04-29T12:27:34.548Z,85.90
2023-04-29T12:30:01.563Z,86.70
2023-04-29T12:32:28.340Z,88.00
2023-04-29T12:34:55.789Z,86.20
2023-04-29T12:37:23.710Z,86.00
2023-04-29T12:39:51.027Z,84.50
2023-04-29T12:42:18.456Z,84.60
2023-04-29T12:44:49.631Z,83.50
2023-04-29T12:47:16.957Z,83.50
2023-04-29T12:49:48.200Z,83.90
2023-04-29T12:52:15.021Z,81.90
2023-04-29T12:54:50.751Z,81.40
2023-04-29T12:57:17.658Z,81.80
2023-04-29T12:59:44.548Z,81.90
2023-04-29T13:02:12.557Z,83.90
2023-04-29T13:04:40.127Z,82.60
2023-04-29T13:07:07.464Z,82.50
2023-04-29T13:09:34.879Z,82.70
2023-04-29T13:12:02.871Z,81.20
2023-04-29T13:14:29.592Z,81.20
2023-04-29T13:16:56.488Z,81.80
2023-04-29T13:21:53.097Z,81.40
2023-04-29T13:24:20.924Z,81.60
2023-04-29T13:26:50.223Z,82.00
2023-04-29T13:29:18.450Z,82.40
2023-04-29T13:31:45.334Z,82.90
2023-04-29T13:34:12.142Z,82.60
2023-04-29T13:36:38.972Z,83.20
2023-04-29T13:39:06.848Z,84.20
2023-04-29T13:41:35.622Z,84.30
2023-04-29T13:44:03.838Z,84.20
2023-04-29T13:46:32.619Z,83.90
2023-04-29T13:54:48.021Z,81.60
2023-04-29T13:59:39.966Z,80.20
2023-04-29T14:04:34.079Z,79.40
2023-04-29T14:07:00.994Z,79.80
2023-04-29T14:09:27.682Z,78.90
2023-04-29T14:11:54.617Z,77.90
2023-04-29T14:14:21.347Z,79.10
2023-04-29T14:16:48.122Z,80.10
2023-04-29T14:19:14.917Z,79.80
2023-04-29T14:21:41.635Z,77.50
2023-04-29T14:24:08.441Z,76.20
2023-04-29T14:26:36.756Z,74.30
2023-04-29T14:29:03.485Z,75.20
2023-04-29T14:31:33.550Z,77.10
2023-04-29T14:34:00.362Z,75.70
2023-04-29T14:36:28.222Z,75.30
2023-04-29T14:38:55.230Z,73.40
2023-04-29T14:41:22.077Z,72.40
2023-04-29T14:43:48.917Z,72.50
2023-04-29T14:46:15.850Z,73.70
2023-04-29T14:48:42.604Z,72.70
2023-04-29T14:51:09.586Z,72.80
2023-04-29T14:53:36.382Z,71.10
2023-04-29T14:56:03.850Z,70.50
2023-04-29T14:58:30.881Z,71.70
2023-04-29T15:00:57.542Z,70.30
2023-04-29T15:03:24.636Z,70.90
2023-04-29T15:05:51.850Z,70.70
2023-04-29T15:08:19.636Z,72.30
2023-04-29T15:10:47.742Z,71.80
2023-04-29T15:13:14.665Z,71.00
2023-04-29T15:15:41.615Z,72.20
2023-04-29T15:18:09.049Z,72.00
2023-04-29T15:20:36.968Z,73.20
2023-04-29T15:23:05.467Z,72.30
2023-04-29T15:25:36.239Z,72.80
2023-04-29T15:28:05.975Z,72.30
2023-04-29T15:30:33.042Z,72.90
2023-04-29T15:32:59.921Z,72.80
2023-04-29T15:35:27.579Z,72.80
2023-04-29T15:37:54.353Z,73.20
2023-04-29T15:40:21.473Z,73.20
2023-04-29T15:42:48.163Z,72.70
2023-04-29T15:45:14.853Z,72.40
2023-04-29T15:47:41.593Z,71.90
2023-04-29T15:50:10.574Z,72.10
2023-04-29T15:52:37.462Z,71.80
2023-04-29T15:55:05.425Z,71.80
2023-04-29T15:57:32.338Z,71.70
2023-04-29T15:59:59.058Z,71.60
2023-04-29T16:02:25.854Z,70.00
2023-04-29T16:04:52.751Z,68.00
2023-04-29T16:07:19.483Z,68.10
2023-04-29T16:09:46.996Z,68.00
2023-04-29T16:12:14.089Z,68.80
2023-04-29T16:14:41.031Z,68.40
2023-04-29T16:17:08.364Z,68.80
2023-04-29T16:19:37.064Z,69.50
2023-04-29T16:22:04.600Z,70.00
2023-04-29T16:24:31.441Z,70.10
2023-04-29T16:26:58.888Z,71.20
2023-04-29T16:29:26.077Z,71.30
2023-04-29T16:31:53.238Z,70.90
2023-04-29T16:34:20.530Z,70.60
2023-04-29T16:36:47.551Z,71.10
2023-04-29T16:39:14.479Z,71.30
2023-04-29T16:41:41.500Z,70.50
2023-04-29T16:44:09.124Z,70.10
2023-04-29T16:46:36.232Z,70.40
2023-04-29T16:49:03.351Z,70.60
2023-04-29T16:51:30.750Z,71.10
2023-04-29T16:53:57.541Z,71.20
2023-04-29T16:56:24.335Z,71.80
2023-04-29T16:58:51.318Z,70.80
2023-04-29T17:01:20.993Z,70.50
2023-04-29T17:03:48.272Z,71.20
2023-04-29T17:06:16.427Z,70.50
2023-04-29T17:08:44.532Z,70.40
2023-04-29T17:11:11.661Z,70.00
2023-04-29T17:13:38.387Z,70.30
2023-04-29T17:16:05.607Z,69.80
2023-04-29T17:18:32.600Z,69.00
2023-04-29T17:20:59.786Z,69.40
2023-04-29T17:23:26.493Z,67.60
2023-04-29T17:25:55.625Z,67.40
2023-04-29T17:28:23.487Z,66.20
2023-04-29T17:30:51.099Z,65.30
2023-04-29T17:33:18.013Z,64.80
2023-04-29T17:35:46.398Z,65.40
2023-04-29T17:38:13.268Z,65.80
2023-04-29T17:40:40.004Z,65.60
2023-04-29T17:43:07.024Z,65.70
2023-04-29T17:45:33.886Z,65.30
2023-04-29T17:48:00.909Z,64.60
2023-04-29T17:50:28.073Z,64.60
2023-04-29T17:52:54.810Z,65.80
2023-04-29T17:55:23.332Z,64.70
2023-04-29T17:57:49.990Z,64.00
2023-04-29T18:00:17.046Z,63.80
2023-04-29T18:02:43.892Z,63.70
2023-04-29T18:05:10.718Z,63.60
2023-04-29T18:07:37.886Z,63.90
2023-04-29T18:10:06.099Z,63.80
2023-04-29T18:12:33.549Z,64.50
2023-04-29T18:15:01.953Z,64.40
2023-04-29T18:17:28.746Z,65.10
2023-04-29T18:19:56.102Z,65.80
2023-04-29T18:22:24.176Z,66.20
2023-04-29T18:24:51.050Z,67.30
2023-04-29T18:27:18.223Z,67.10
2023-04-29T18:29:45.521Z,67.40
2023-04-29T18:32:12.315Z,67.80
2023-04-29T18:34:39.126Z,67.80
2023-04-29T18:37:05.974Z,67.70
2023-04-29T18:39:33.045Z,68.60
2023-04-29T18:42:00.293Z,70.30
2023-04-29T18:44:28.135Z,71.20
2023-04-29T18:46:55.024Z,72.80
2023-04-29T18:49:22.005Z,73.40
2023-04-29T18:51:49.793Z,74.60
2023-04-29T18:54:18.588Z,75.10
2023-04-29T18:56:50.162Z,75.40
2023-04-29T18:59:19.601Z,77.30
2023-04-29T19:01:47.536Z,77.30
2023-04-29T19:04:14.630Z,77.70
2023-04-29T19:06:42.408Z,78.00
2023-04-29T19:09:09.827Z,79.70
2023-04-29T19:11:36.677Z,79.20
2023-04-29T19:14:06.349Z,79.50
2023-04-29T19:16:35.563Z,79.30
2023-04-29T19:19:04.647Z,79.90
2023-04-29T19:21:36.111Z,80.10
2023-04-29T19:24:03.248Z,81.00
2023-04-29T19:26:33.005Z,81.70
2023-04-29T19:29:02.273Z,81.90
2023-04-29T19:31:29.285Z,83.30
2023-04-29T19:33:56.663Z,82.80
2023-04-29T19:36:23.397Z,83.20
2023-04-29T19:38:50.723Z,83.40
2023-04-29T19:41:18.142Z,84.20
2023-04-29T19:43:45.085Z,83.90
2023-04-29T19:46:12.970Z,84.00
2023-04-29T19:48:40.239Z,84.30
2023-04-29T19:51:08.764Z,84.50
2023-04-29T19:53:36.918Z,85.40
2023-04-29T19:56:03.934Z,86.00
2023-04-29T19:58:31.219Z,86.50
2023-04-29T20:00:58.181Z,86.40
2023-04-29T20:03:25.643Z,86.80
2023-04-29T20:05:52.786Z,86.70
2023-04-29T20:08:19.832Z,87.10
2023-04-29T20:10:46.654Z,87.10
2023-04-29T20:13:13.345Z,87.90
2023-04-29T20:15:40.017Z,87.70
2023-04-29T20:18:06.705Z,87.40
2023-04-29T20:20:33.371Z,87.50
2023-04-29T20:23:00.682Z,87.50
2023-04-29T20:25:28.489Z,87.90
2023-04-29T20:27:55.306Z,90.10
2023-04-29T20:30:22.724Z,88.70
2023-04-29T20:32:49.467Z,88.50
2023-04-29T20:35:16.785Z,88.70
2023-04-29T20:37:43.513Z,89.00
2023-04-29T20:40:10.605Z,89.30
2023-04-29T20:42:37.542Z,89.70
2023-04-29T20:45:06.283Z,90.10
2023-04-29T20:47:35.148Z,90.30
2023-04-29T20:50:04.943Z,90.50
2023-04-29T20:52:31.764Z,90.60
2023-04-29T20:54:58.962Z,90.70
2023-04-29T20:57:25.847Z,91.10
2023-04-29T20:59:52.941Z,91.20
2023-04-29T21:02:20.392Z,91.20
2023-04-29T21:04:47.292Z,91.30
2023-04-29T21:07:14.289Z,91.50
2023-04-29T21:09:41.032Z,91.50
2023-04-29T21:12:08.261Z,91.50
2023-04-29T21:14:35.403Z,91.50
2023-04-29T21:17:02.081Z,91.50
2023-04-29T21:19:28.774Z,91.30
2023-04-29T21:21:55.674Z,91.20
2023-04-29T21:24:22.632Z,91.20
2023-04-29T21:26:50.431Z,91.10
2023-04-29T21:29:17.178Z,91.00
2023-04-29T21:31:43.906Z,90.90
2023-04-29T21:34:10.836Z,90.90
2023-04-29T21:36:37.587Z,90.80
2023-04-29T21:39:04.311Z,90.70
2023-04-29T21:41:34.976Z,91.10
2023-04-29T21:44:02.335Z,90.60
2023-04-29T21:46:30.469Z,90.50
2023-04-29T21:49:01.303Z,90.50
2023-04-29T21:51:28.968Z,90.00
2023-04-29T21:53:55.877Z,90.50
2023-04-29T21:56:24.481Z,90.50
2023-04-29T21:58:51.345Z,90.90
2023-04-29T22:01:27.649Z,90.40
2023-04-29T22:03:57.151Z,90.40
2023-04-29T22:06:24.461Z,90.40
2023-04-29T22:08:51.371Z,90.70
2023-04-29T22:11:21.898Z,90.30
2023-04-29T22:13:49.257Z,90.50
2023-04-29T22:16:16.672Z,90.40
2023-04-29T22:18:43.561Z,90.50
2023-04-29T22:21:10.455Z,90.40
2023-04-29T22:23:37.371Z,90.30
2023-04-29T22:26:04.134Z,90.20
2023-04-29T22:28:31.268Z,90.30
2023-04-29T22:31:01.371Z,90.30
2023-04-29T22:33:31.301Z,90.40
2023-04-29T22:35:58.245Z,90.30
2023-04-29T22:38:25.110Z,90.30
2023-04-29T22:40:54.606Z,90.30
2023-04-29T22:43:21.517Z,90.20
2023-04-29T22:45:55.157Z,90.20
2023-04-29T22:48:25.097Z,90.10
2023-04-29T22:50:54.836Z,90.10
2023-04-29T22:53:25.450Z,90.20
2023-04-29T22:55:59.615Z,90.10
2023-04-29T22:58:26.750Z,90.10
2023-04-29T23:00:59.154Z,90.10
2023-04-29T23:03:26.927Z,90.10
2023-04-29T23:06:00.525Z,90.00
2023-04-29T23:08:28.246Z,90.00
2023-04-29T23:10:55.043Z,90.00
2023-04-29T23:13:21.750Z,89.90
2023-04-29T23:15:48.465Z,89.80
2023-04-29T23:18:15.531Z,90.20
2023-04-29T23:20:46.141Z,90.00
2023-04-29T23:23:12.834Z,89.80
2023-04-29T23:25:39.582Z,90.10
2023-04-29T23:28:06.852Z,89.70
2023-04-29T23:30:33.559Z,89.70
2023-04-29T23:33:00.331Z,89.90
2023-04-29T23:35:27.302Z,90.30
2023-04-29T23:37:54.043Z,89.90
2023-04-29T23:40:20.841Z,89.90
2023-04-29T23:42:47.544Z,89.90
2023-04-29T23:45:14.343Z,89.90
2023-04-29T23:47:41.358Z,89.90
2023-04-29T23:50:08.738Z,89.70
2023-04-29T23:52:35.669Z,89.80
2023-04-29T23:55:03.086Z,90.00
2023-04-29T23:57:29.906Z,89.60
2023-04-29T23:59:56.862Z,89.60
